Time;durP1;ratioP1;P1;durP2;ratioP2;P2;SDS_P1;SDS_P2;PMS_P1;PMS_P2;Temp;Humidity;BMP_temperature;BMP_pressure;BME280_temperature;BME280_humidity;BME280_pressure;Samples;Min_cycle;Max_cycle;Signal;HPM_P1;HPM_P2
2023/12/28 00:00:12;;;;;;;7.95;3.42;;;13.60;99.90;;;;;;7383014;19;19998;-74
2023/12/28 00:02:41;;;;;;;13.80;3.53;;;13.60;99.90;;;;;;7382453;19;20089;-73
2023/12/28 00:05:10;;;;;;;9.85;3.20;;;13.20;99.90;;;;;;7398866;19;20366;-73
2023/12/28 00:07:40;;;;;;;11.07;3.30;;;13.40;99.90;;;;;;7403343;19;20425;-74
2023/12/28 00:10:10;;;;;;;7.90;3.45;;;13.10;99.90;;;;;;7381625;19;20007;-73
2023/12/28 00:12:41;;;;;;;13.70;3.40;;;13.20;99.90;;;;;;7382282;19;20019;-74
2023/12/28 00:15:11;;;;;;;9.80;3.10;;;13.10;99.90;;;;;;7381181;19;20019;-73
2023/12/28 00:17:40;;;;;;;7.75;3.35;;;13.00;99.90;;;;;;7379815;19;20014;-74
2023/12/28 00:20:11;;;;;;;10.70;3.13;;;13.10;99.90;;;;;;7403774;19;20021;-72
2023/12/28 00:22:40;;;;;;;9.93;3.33;;;13.20;99.90;;;;;;7381390;19;20023;-74
2023/12/28 00:25:11;;;;;;;11.07;3.42;;;13.30;99.90;;;;;;7381077;19;20288;-74
2023/12/28 00:27:42;;;;;;;;;;;13.40;99.90;;;;;;7382546;19;20016;-74
2023/12/28 00:30:12;;;;;;;14.50;3.67;;;13.30;99.90;;;;;;7381693;19;19907;-73
2023/12/28 00:32:43;;;;;;;9.52;2.90;;;13.40;99.90;;;;;;7381665;19;20007;-73
2023/12/28 00:35:11;;;;;;;7.38;3.45;;;13.40;99.90;;;;;;7402854;19;20020;-73
2023/12/28 00:37:41;;;;;;;7.78;3.15;;;13.50;99.90;;;;;;7380387;19;19998;-73
2023/12/28 00:40:10;;;;;;;7.30;3.60;;;13.50;99.90;;;;;;7380408;19;20006;-74
2023/12/28 00:42:42;;;;;;;14.30;3.40;;;13.50;99.90;;;;;;7380735;19;20014;-75
2023/12/28 00:45:11;;;;;;;6.15;3.13;;;13.20;99.90;;;;;;7381377;19;20023;-74
2023/12/28 00:47:42;;;;;;;10.05;4.07;;;13.40;99.90;;;;;;7386166;19;20017;-74
2023/12/28 00:50:11;;;;;;;16.10;4.05;;;13.30;99.90;;;;;;7408080;19;20396;-74
2023/12/28 00:52:40;;;;;;;11.63;3.38;;;13.50;99.90;;;;;;7385734;19;20035;-74
2023/12/28 00:55:10;;;;;;;11.23;3.50;;;13.50;99.90;;;;;;7384698;19;20003;-74
2023/12/28 00:57:38;;;;;;;11.25;4.20;;;13.30;99.90;;;;;;7382323;19;20007;-74
2023/12/28 01:00:09;;;;;;;11.90;4.47;;;13.30;99.90;;;;;;7380305;19;20019;-73
2023/12/28 01:02:37;;;;;;;12.75;3.50;;;13.40;99.90;;;;;;7379065;19;20219;-74
2023/12/28 01:05:07;;;;;;;10.95;3.83;;;13.10;99.90;;;;;;7401709;19;20019;-74
2023/12/28 01:07:38;;;;;;;9.38;3.38;;;13.30;99.90;;;;;;7379275;19;20012;-74
2023/12/28 01:10:07;;;;;;;12.57;3.70;;;13.40;99.90;;;;;;7379460;19;20398;-73
2023/12/28 01:12:36;;;;;;;10.98;3.50;;;13.10;99.90;;;;;;7379855;19;20014;-73
2023/12/28 01:15:07;;;;;;;13.73;3.67;;;13.40;99.90;;;;;;7377403;19;20006;-73
2023/12/28 01:17:38;;;;;;;8.23;3.03;;;13.50;99.90;;;;;;7379826;19;20010;-74
2023/12/28 01:20:08;;;;;;;12.02;3.80;;;13.40;99.90;;;;;;7400311;19;20075;-74
2023/12/28 01:22:37;;;;;;;12.30;3.80;;;13.50;99.90;;;;;;7379556;19;20011;-74
2023/12/28 01:25:06;;;;;;;11.30;3.40;;;13.50;99.90;;;;;;7379069;19;20062;-74
2023/12/28 01:27:35;;;;;;;8.90;3.35;;;13.50;99.90;;;;;;7377421;19;20288;-74
2023/12/28 01:30:04;;;;;;;13.45;3.75;;;13.20;99.90;;;;;;7380321;19;20369;-73
2023/12/28 01:32:32;;;;;;;14.05;3.30;;;13.10;99.90;;;;;;7379946;19;20016;-73
2023/12/28 01:35:04;;;;;;;7.88;3.40;;;13.30;99.90;;;;;;7400872;19;20022;-74
2023/12/28 01:37:33;;;;;;;;;;;13.40;99.90;;;;;;7379352;19;20014;-74
2023/12/28 01:40:02;;;;;;;16.33;3.75;;;13.50;99.90;;;;;;7379095;19;19907;-74
2023/12/28 01:42:31;;;;;;;8.65;3.60;;;13.20;99.90;;;;;;7379200;19;20009;-75
2023/12/28 01:45:00;;;;;;;15.60;3.60;;;13.40;99.90;;;;;;7378875;19;20007;-73
2023/12/28 01:47:29;;;;;;;13.18;3.60;;;13.30;99.90;;;;;;7379619;19;20007;-73
2023/12/28 01:49:59;;;;;;;8.30;4.78;;;13.30;99.90;;;;;;7400081;19;20296;-74
2023/12/28 01:52:31;;;;;;;8.75;3.65;;;13.40;99.90;;;;;;7378502;19;20264;-74
2023/12/28 01:54:59;;;;;;;17.90;4.82;;;13.50;99.90;;;;;;7379067;19;20005;-74
2023/12/28 01:57:29;;;;;;;10.07;3.88;;;13.50;99.90;;;;;;7377721;19;20003;-73
2023/12/28 01:59:58;;;;;;;7.65;3.58;;;13.50;99.90;;;;;;7378760;19;20305;-73
2023/12/28 02:02:27;;;;;;;7.47;3.65;;;13.30;99.90;;;;;;7379597;19;20013;-74
2023/12/28 02:04:56;;;;;;;12.30;3.85;;;13.00;99.90;;;;;;7400069;19;20074;-73
2023/12/28 02:07:26;;;;;;;15.32;3.85;;;13.30;99.90;;;;;;7378402;19;20417;-74
2023/12/28 02:09:58;;;;;;;7.30;3.28;;;13.30;99.90;;;;;;7378059;19;20006;-73
2023/12/28 02:12:27;;;;;;;11.52;3.55;;;13.40;99.90;;;;;;7376962;19;20003;-73
2023/12/28 02:14:55;;;;;;;12.60;4.70;;;13.40;99.90;;;;;;7378136;19;20003;-75
2023/12/28 02:17:30;;;;;;;16.05;4.13;;;13.40;99.90;;;;;;7376312;19;20318;-74
2023/12/28 02:20:00;;;;;;;8.77;3.72;;;13.50;99.90;;;;;;7399722;19;20421;-74
2023/12/28 02:22:31;;;;;;;11.70;3.88;;;13.50;99.90;;;;;;7377651;19;20002;-73
2023/12/28 02:25:11;;;;;;;8.05;3.88;;;13.50;99.90;;;;;;7377807;19;20054;-74
2023/12/28 02:27:42;;;;;;;10.40;3.63;;;13.50;99.90;;;;;;7378256;19;20021;-73
2023/12/28 02:30:12;;;;;;;11.95;3.72;;;13.50;99.90;;;;;;7377947;19;20131;-74
2023/12/28 02:32:55;;;;;;;11.70;4.10;;;13.30;99.90;;;;;;7378336;19;20030;-74
2023/12/28 02:35:28;;;;;;;16.60;3.78;;;13.40;99.90;;;;;;7377467;19;20075;-74
2023/12/28 02:38:01;;;;;;;12.20;4.07;;;13.50;99.90;;;;;;7399204;19;20011;-73
2023/12/28 02:40:38;;;;;;;7.57;3.72;;;13.50;99.90;;;;;;7381318;19;20085;-73
2023/12/28 02:43:07;;;;;;;9.95;3.88;;;13.50;99.90;;;;;;7384482;19;20066;-73
2023/12/28 02:45:37;;;;;;;7.78;3.55;;;13.60;99.90;;;;;;7384487;19;20040;-74
2023/12/28 02:48:06;;;;;;;11.98;4.30;;;13.50;99.90;;;;;;7384987;19;20010;-74
2023/12/28 02:50:36;;;;;;;12.85;4.13;;;13.40;99.90;;;;;;7384888;19;20011;-74
2023/12/28 02:53:07;;;;;;;10.38;4.68;;;13.50;99.90;;;;;;7407422;19;20063;-73
2023/12/28 02:55:38;;;;;;;11.38;4.03;;;13.60;99.90;;;;;;7392023;19;20369;-74
2023/12/28 02:58:07;;;;;;;10.68;4.47;;;13.60;99.90;;;;;;7391353;19;20026;-74
2023/12/28 03:00:36;;;;;;;13.38;3.70;;;13.70;99.90;;;;;;7391647;19;20006;-75
2023/12/28 03:03:07;;;;;;;13.63;5.05;;;13.70;99.90;;;;;;7388574;19;20014;-74
2023/12/28 03:05:36;;;;;;;9.25;3.30;;;13.80;99.90;;;;;;7384175;19;20035;-74
2023/12/28 03:08:05;;;;;;;13.10;3.75;;;13.70;99.90;;;;;;7405736;19;20080;-74
2023/12/28 03:10:34;;;;;;;14.45;4.75;;;13.70;99.90;;;;;;7383519;19;20010;-74
2023/12/28 03:13:06;;;;;;;8.32;3.17;;;13.80;99.90;;;;;;7383714;19;20007;-74
2023/12/28 03:15:35;;;;;;;11.32;3.78;;;13.80;99.90;;;;;;7383438;19;20006;-74
2023/12/28 03:18:03;;;;;;;13.25;2.97;;;13.80;99.90;;;;;;7384510;19;20027;-74
2023/12/28 03:20:32;;;;;;;9.10;3.55;;;13.80;99.90;;;;;;7383360;19;20091;-73
2023/12/28 03:23:01;;;;;;;13.25;3.85;;;13.80;99.90;;;;;;7408634;19;20003;-73
2023/12/28 03:25:29;;;;;;;13.55;3.35;;;13.80;99.90;;;;;;7383070;19;20010;-74
2023/12/28 03:27:58;;;;;;;10.95;3.40;;;13.80;99.90;;;;;;7383198;19;20007;-74
2023/12/28 03:30:29;;;;;;;7.45;4.15;;;13.70;99.90;;;;;;7383509;19;20014;-74
2023/12/28 03:33:00;;;;;;;13.27;4.03;;;13.70;99.90;;;;;;7382232;19;20007;-73
2023/12/28 03:35:29;;;;;;;14.05;3.67;;;13.60;99.90;;;;;;7383272;19;20017;-74
2023/12/28 03:37:57;;;;;;;9.48;3.72;;;13.60;99.90;;;;;;7402208;19;20378;-74
2023/12/28 03:40:26;;;;;;;17.83;3.88;;;13.70;99.90;;;;;;7382386;19;20010;-74
2023/12/28 03:42:55;;;;;;;12.32;3.88;;;13.70;99.90;;;;;;7382559;19;20315;-73
2023/12/28 03:45:23;;;;;;;13.32;3.22;;;13.70;99.90;;;;;;7383172;19;20062;-74
2023/12/28 03:47:55;;;;;;;15.13;3.78;;;13.70;99.90;;;;;;7382443;19;20383;-73
2023/12/28 03:50:23;;;;;;;13.20;4.60;;;13.70;99.90;;;;;;7404244;19;20023;-73
2023/12/28 03:52:52;;;;;;;11.55;4.03;;;13.60;99.90;;;;;;7380135;19;20006;-73
2023/12/28 03:55:21;;;;;;;15.00;3.78;;;13.60;99.90;;;;;;7381748;19;20027;-73
2023/12/28 03:57:52;;;;;;;12.43;3.58;;;13.70;99.90;;;;;;7381719;19;20056;-74
2023/12/28 04:00:23;;;;;;;13.85;3.92;;;13.70;99.90;;;;;;7382861;19;20014;-74
2023/12/28 04:02:51;;;;;;;8.35;3.80;;;13.60;99.90;;;;;;7382533;19;20039;-74
2023/12/28 04:05:23;;;;;;;8.40;3.72;;;13.50;99.90;;;;;;7403399;19;20015;-74
2023/12/28 04:07:52;;;;;;;8.35;3.63;;;13.40;99.90;;;;;;7382053;19;20010;-74
2023/12/28 04:10:31;;;;;;;14.70;3.92;;;13.30;99.90;;;;;;7381215;19;20066;-73
2023/12/28 04:13:00;;;;;;;8.63;3.38;;;13.30;99.90;;;;;;7381779;19;20041;-74
2023/12/28 04:15:29;;;;;;;13.05;3.78;;;13.30;99.90;;;;;;7382426;19;20042;-73
2023/12/28 04:17:58;;;;;;;12.52;4.10;;;13.40;99.90;;;;;;7380690;19;20019;-74
2023/12/28 04:20:29;;;;;;;8.60;3.10;;;13.40;99.90;;;;;;7401277;19;20054;-73
2023/12/28 04:22:58;;;;;;;9.50;3.40;;;13.20;99.90;;;;;;7403210;19;20278;-74
2023/12/28 04:25:26;;;;;;;15.07;3.58;;;13.20;99.90;;;;;;7381096;19;20014;-75
2023/12/28 04:27:58;;;;;;;19.50;3.88;;;13.30;99.90;;;;;;7381471;19;20015;-74
2023/12/28 04:30:27;;;;;;;12.02;3.13;;;13.30;99.90;;;;;;7381863;19;20054;-74
2023/12/28 04:32:56;;;;;;;8.88;3.30;;;13.30;99.90;;;;;;7381344;19;20019;-74
2023/12/28 04:35:24;;;;;;;14.50;4.03;;;13.30;99.90;;;;;;7403296;19;20011;-74
2023/12/28 04:37:56;;;;;;;10.18;3.83;;;13.30;99.90;;;;;;7379134;19;20011;-74
2023/12/28 04:40:24;;;;;;;10.18;3.67;;;13.30;99.90;;;;;;7380850;19;20006;-74
2023/12/28 04:42:53;;;;;;;5.55;3.28;;;13.30;99.90;;;;;;7381280;19;20068;-74
2023/12/28 04:45:22;;;;;;;15.05;3.83;;;13.30;99.90;;;;;;7380976;19;20002;-74
2023/12/28 04:47:50;;;;;;;19.98;3.95;;;13.10;99.90;;;;;;7381027;19;20349;-74
2023/12/28 04:50:19;;;;;;;9.52;3.05;;;13.20;99.90;;;;;;7402673;19;20016;-74
2023/12/28 04:52:48;;;;;;;8.68;3.15;;;13.20;99.90;;;;;;7380139;19;20003;-74
2023/12/28 04:55:20;;;;;;;13.55;5.00;;;13.30;99.90;;;;;;7380291;19;20389;-73
2023/12/28 04:57:49;;;;;;;27.10;5.35;;;13.30;99.90;;;;;;7380965;19;20013;-74
2023/12/28 05:00:18;;;;;;;12.63;3.65;;;13.40;99.90;;;;;;7385435;19;20011;-74
2023/12/28 05:02:47;;;;;;;15.27;4.00;;;13.40;99.90;;;;;;7384468;19;20006;-74
2023/12/28 05:05:16;;;;;;;13.43;3.47;;;13.30;99.90;;;;;;7406505;19;20018;-75
2023/12/28 05:07:45;;;;;;;18.88;3.58;;;13.30;99.90;;;;;;7385487;19;20038;-74
2023/12/28 05:10:13;;;;;;;18.23;4.60;;;13.30;99.90;;;;;;7382885;19;20007;-74
2023/12/28 05:12:44;;;;;;;15.55;3.70;;;13.40;99.90;;;;;;7380676;19;20016;-75
2023/12/28 05:15:13;;;;;;;18.52;4.18;;;13.30;99.90;;;;;;7381437;19;20034;-74
2023/12/28 05:17:42;;;;;;;9.60;4.30;;;13.30;99.90;;;;;;7379477;19;20017;-74
2023/12/28 05:20:11;;;;;;;17.45;3.97;;;13.40;99.90;;;;;;7401193;19;20362;-75
2023/12/28 05:22:40;;;;;;;15.57;3.60;;;13.40;99.90;;;;;;7379233;19;20002;-74
2023/12/28 05:25:09;;;;;;;12.35;3.38;;;13.40;99.90;;;;;;7380090;19;20019;-74
2023/12/28 05:27:38;;;;;;;9.55;3.10;;;13.40;99.90;;;;;;7379862;19;20033;-75
2023/12/28 05:30:10;;;;;;;13.73;2.88;;;13.40;99.90;;;;;;7379980;19;20007;-74
2023/12/28 05:32:39;;;;;;;10.85;3.83;;;13.40;99.90;;;;;;7379720;19;20034;-74
2023/12/28 05:35:09;;;;;;;13.27;4.30;;;13.40;99.90;;;;;;7400467;19;20011;-74
2023/12/28 05:37:37;;;;;;;14.85;3.75;;;13.40;99.90;;;;;;7377936;19;20010;-74
2023/12/28 05:40:09;;;;;;;21.95;4.75;;;13.30;99.90;;;;;;7379799;19;20074;-74
2023/12/28 05:42:38;;;;;;;16.45;3.88;;;13.30;99.90;;;;;;7379275;19;20246;-75
2023/12/28 05:45:10;;;;;;;15.10;3.55;;;13.30;99.90;;;;;;7379000;19;20007;-74
2023/12/28 05:47:38;;;;;;;13.68;3.55;;;13.20;99.90;;;;;;7379331;19;20240;-74
2023/12/28 05:50:11;;;;;;;20.77;3.80;;;13.10;99.90;;;;;;7400645;19;20011;-74
2023/12/28 05:52:40;;;;;;;19.70;6.03;;;13.10;99.90;;;;;;7378782;19;20389;-73
2023/12/28 05:55:10;;;;;;;19.50;4.97;;;13.10;99.90;;;;;;7379555;19;20038;-74
2023/12/28 05:57:39;;;;;;;25.15;3.72;;;13.20;99.90;;;;;;7379116;19;20014;-74
2023/12/28 06:00:11;;;;;;;15.38;3.67;;;12.90;99.90;;;;;;7379229;19;19999;-74
2023/12/28 06:02:40;;;;;;;15.98;4.97;;;12.90;99.90;;;;;;7382712;19;20233;-74
2023/12/28 06:05:09;;;;;;;23.38;5.45;;;13.00;99.90;;;;;;7400384;19;20014;-74
2023/12/28 06:07:38;;;;;;;23.08;3.88;;;13.10;99.90;;;;;;7378185;19;20369;-74
2023/12/28 06:10:08;;;;;;;14.15;3.42;;;12.90;99.90;;;;;;7379148;19;20009;-74
2023/12/28 06:12:38;;;;;;;18.80;3.67;;;13.00;99.90;;;;;;7378478;19;20067;-74
2023/12/28 06:15:11;;;;;;;10.68;3.53;;;13.00;99.90;;;;;;7381411;19;20013;-74
2023/12/28 06:17:40;;;;;;;8.27;3.35;;;13.00;99.90;;;;;;7384481;19;20023;-74
2023/12/28 06:20:10;;;;;;;11.55;3.80;;;13.00;99.90;;;;;;7406664;19;20239;-74
2023/12/28 06:22:42;;;;;;;15.80;3.83;;;12.90;99.90;;;;;;7384885;19;20038;-74
2023/12/28 06:25:13;;;;;;;15.55;3.22;;;12.90;99.90;;;;;;7385688;19;20006;-73
2023/12/28 06:27:42;;;;;;;16.20;3.22;;;13.00;99.90;;;;;;7385282;19;20014;-73
2023/12/28 06:30:14;;;;;;;13.25;3.55;;;13.00;99.90;;;;;;7385397;19;20307;-73
2023/12/28 06:32:43;;;;;;;20.80;4.53;;;12.90;99.90;;;;;;7385188;19;20233;-73
2023/12/28 06:35:12;;;;;;;18.75;3.92;;;13.00;99.90;;;;;;7406464;19;20139;-74
2023/12/28 06:37:41;;;;;;;14.57;4.47;;;12.90;99.90;;;;;;7383249;19;20063;-73
2023/12/28 06:40:11;;;;;;;18.45;3.72;;;13.00;99.90;;;;;;7385070;19;20429;-73
2023/12/28 06:42:41;;;;;;;15.48;6.63;;;13.00;99.90;;;;;;7384814;19;20003;-75
2023/12/28 06:45:13;;;;;;;20.20;3.85;;;13.00;99.90;;;;;;7385466;19;20088;-74
2023/12/28 06:47:41;;;;;;;14.80;3.30;;;13.00;99.90;;;;;;7385008;19;20020;-74
2023/12/28 06:50:11;;;;;;;14.05;3.90;;;13.10;99.90;;;;;;7405489;19;20011;-73
2023/12/28 06:52:40;;;;;;;11.32;3.75;;;13.10;99.90;;;;;;7384096;19;20010;-73
2023/12/28 06:55:09;;;;;;;17.98;4.32;;;13.10;99.90;;;;;;7384447;19;20025;-74
2023/12/28 06:57:38;;;;;;;19.45;4.05;;;13.10;99.90;;;;;;7383363;19;20003;-74
2023/12/28 07:00:08;;;;;;;15.00;5.80;;;13.10;99.90;;;;;;7385032;19;20078;-74
2023/12/28 07:02:39;;;;;;;15.10;4.00;;;13.10;99.90;;;;;;7406155;19;20006;-74
2023/12/28 07:05:09;;;;;;;26.98;5.05;;;12.90;99.90;;;;;;7383570;19;20354;-74
2023/12/28 07:07:38;;;;;;;14.18;4.18;;;13.00;99.90;;;;;;7386033;19;20019;-74
2023/12/28 07:10:08;;;;;;;20.75;5.18;;;13.00;99.90;;;;;;7390480;19;20086;-75
2023/12/28 07:12:37;;;;;;;21.85;5.03;;;13.00;99.90;;;;;;7390912;19;20010;-75
2023/12/28 07:15:06;;;;;;;27.05;10.35;;;13.00;99.90;;;;;;7391866;19;20028;-75
2023/12/28 07:17:35;;;;;;;23.35;5.28;;;13.00;99.90;;;;;;7411972;19;20027;-75
2023/12/28 07:20:09;;;;;;;29.67;6.22;;;13.00;99.90;;;;;;7386404;19;20283;-73
2023/12/28 07:22:37;;;;;;;15.30;5.07;;;13.00;99.90;;;;;;7383606;19;20277;-74
2023/12/28 07:25:07;;;;;;;15.77;4.32;;;13.00;99.90;;;;;;7383000;19;20007;-74
2023/12/28 07:27:37;;;;;;;17.77;4.20;;;13.00;99.90;;;;;;7383211;19;20011;-74
2023/12/28 07:30:07;;;;;;;19.25;4.43;;;13.00;99.90;;;;;;7383662;19;20246;-74
2023/12/28 07:32:36;;;;;;;15.80;4.78;;;12.80;99.90;;;;;;7404875;19;20011;-74
2023/12/28 07:35:10;;;;;;;25.83;6.53;;;12.80;99.90;;;;;;7382887;19;20014;-74
2023/12/28 07:37:39;;;;;;;22.25;5.18;;;12.90;99.90;;;;;;7382277;19;20249;-74
2023/12/28 07:40:10;;;;;;;21.65;4.70;;;12.90;99.90;;;;;;7382998;19;20413;-73
2023/12/28 07:42:38;;;;;;;15.73;4.35;;;12.80;99.90;;;;;;7383604;19;20007;-74
2023/12/28 07:45:08;;;;;;;21.92;5.68;;;12.90;99.90;;;;;;7382564;19;20007;-74
2023/12/28 07:47:37;;;;;;;25.10;4.82;;;13.00;99.90;;;;;;7404126;19;20400;-74
2023/12/28 07:50:06;;;;;;;23.02;5.78;;;13.00;99.90;;;;;;7382346;19;20043;-73
2023/12/28 07:52:37;;;;;;;21.58;6.85;;;13.00;99.90;;;;;;7382142;19;20007;-74
2023/12/28 07:55:07;;;;;;;18.90;4.40;;;13.00;99.90;;;;;;7382159;19;20365;-73
2023/12/28 07:57:37;;;;;;;13.30;4.38;;;13.00;99.90;;;;;;7382606;19;20063;-74
2023/12/28 08:00:08;;;;;;;16.25;3.85;;;12.90;99.90;;;;;;7382279;19;20369;-73
2023/12/28 08:02:37;;;;;;;10.68;3.95;;;13.00;99.90;;;;;;7403913;19;20018;-73
2023/12/28 08:05:06;;;;;;;15.82;3.67;;;13.00;99.90;;;;;;7381556;19;20007;-75
2023/12/28 08:07:37;;;;;;;16.88;4.55;;;13.00;99.90;;;;;;7381596;19;20003;-73
2023/12/28 08:10:18;;;;;;;22.30;4.10;;;13.10;99.90;;;;;;7383606;19;20007;-79
2023/12/28 08:12:47;;;;;;;18.00;3.80;;;13.00;99.90;;;;;;7386453;19;20253;-79
2023/12/28 08:15:15;;;;;;;13.60;3.80;;;13.00;99.90;;;;;;7383552;19;20281;-77
2023/12/28 08:17:44;;;;;;;14.32;3.40;;;13.10;99.90;;;;;;7404770;19;20017;-76
2023/12/28 08:20:15;;;;;;;10.43;3.42;;;13.00;99.90;;;;;;7382388;19;20019;-77
2023/12/28 08:22:47;;;;;;;25.08;3.75;;;13.00;99.90;;;;;;7383077;19;20007;-78
2023/12/28 08:25:18;;;;;;;22.40;3.72;;;13.10;99.90;;;;;;7384040;19;20014;-77
2023/12/28 08:27:47;;;;;;;13.65;3.38;;;13.10;99.90;;;;;;7383831;19;19999;-79
2023/12/28 08:30:16;;;;;;;12.38;3.30;;;13.20;99.90;;;;;;7385017;19;20019;-79
2023/12/28 08:32:45;;;;;;;14.93;4.03;;;13.30;99.90;;;;;;7406449;19;20015;-79
2023/12/28 08:35:14;;;;;;;14.50;3.60;;;13.20;99.90;;;;;;7382886;19;20006;-78
2023/12/28 08:37:45;;;;;;;15.13;3.72;;;13.30;99.90;;;;;;7380494;19;20035;-79
2023/12/28 08:40:18;;;;;;;16.73;2.75;;;13.30;99.90;;;;;;7385444;19;20010;-80
2023/12/28 08:42:47;;;;;;;11.73;3.20;;;13.30;99.90;;;;;;7385996;19;20246;-77
2023/12/28 08:45:16;;;;;;;21.30;3.47;;;13.30;99.90;;;;;;7353174;19;20118;-78
2023/12/28 08:47:45;;;;;;;10.80;2.97;;;13.30;99.90;;;;;;7404122;19;20010;-78
2023/12/28 08:50:14;;;;;;;8.13;2.65;;;13.30;99.90;;;;;;7380864;19;20006;-76
2023/12/28 08:52:42;;;;;;;10.60;2.70;;;13.20;99.90;;;;;;7380639;19;20019;-77
2023/12/28 08:55:11;;;;;;;12.40;2.85;;;13.20;99.90;;;;;;7381218;19;20291;-77
2023/12/28 08:57:43;;;;;;;15.63;2.83;;;13.30;99.90;;;;;;7381000;19;20311;-77
2023/12/28 09:00:14;;;;;;;13.13;3.35;;;13.40;99.90;;;;;;7380741;19;20070;-77
2023/12/28 09:02:43;;;;;;;12.25;3.70;;;13.50;99.90;;;;;;7402489;19;20365;-75
2023/12/28 09:05:12;;;;;;;12.98;3.03;;;13.40;99.90;;;;;;7380073;19;20003;-76
2023/12/28 09:07:49;;;;;;;13.68;4.07;;;13.40;99.90;;;;;;7388264;19;20009;-80
2023/12/28 09:10:20;;;;;;;16.98;4.60;;;13.40;99.90;;;;;;7387575;19;20028;-78
2023/12/28 09:12:51;;;;;;;14.05;3.78;;;13.30;99.90;;;;;;7386787;19;20007;-79
2023/12/28 09:15:24;;;;;;;13.98;5.13;;;13.30;99.90;;;;;;7380830;19;20007;-79
2023/12/28 09:17:53;;;;;;;21.30;4.10;;;13.40;99.90;;;;;;7379657;19;20007;-78
2023/12/28 09:20:22;;;;;;;17.05;4.78;;;13.50;99.90;;;;;;7402561;19;20046;-77
2023/12/28 09:22:56;;;;;;;22.05;4.93;;;13.20;99.90;;;;;;7389946;19;20092;-77
2023/12/28 09:25:24;;;;;;;18.80;5.32;;;13.00;99.90;;;;;;7397888;19;20010;-78
2023/12/28 09:27:56;;;;;;;10.20;4.03;;;13.30;99.90;;;;;;7396304;19;20017;-78
2023/12/28 09:30:24;;;;;;;;;;;13.50;99.90;;;;;;7386976;19;20006;-80
2023/12/28 09:32:56;;;;;;;12.77;4.68;;;13.40;99.90;;;;;;7383111;19;19923;-80
2023/12/28 09:35:29;;;;;;;11.85;4.30;;;13.40;99.90;;;;;;7406974;19;20011;-82
2023/12/28 09:37:58;;;;;;;18.88;4.07;;;13.50;99.90;;;;;;7381549;19;20263;-79
2023/12/28 09:40:27;;;;;;;19.30;7.60;;;13.70;99.90;;;;;;7380891;19;20271;-80
2023/12/28 09:43:10;;;;;;;12.85;4.32;;;13.60;99.90;;;;;;7381751;19;20018;-80
2023/12/28 09:45:41;;;;;;;11.25;3.72;;;13.60;99.90;;;;;;7381229;19;20010;-80
2023/12/28 09:48:10;;;;;;;7.25;3.03;;;13.70;99.90;;;;;;7379920;19;20007;-78
2023/12/28 09:50:38;;;;;;;9.02;3.67;;;13.70;99.90;;;;;;7410596;19;20054;-79
2023/12/28 09:53:07;;;;;;;18.30;3.38;;;13.80;99.90;;;;;;7385631;19;20275;-77
2023/12/28 09:55:36;;;;;;;24.27;3.80;;;13.80;99.90;;;;;;7387851;19;20361;-78
2023/12/28 09:58:09;;;;;;;9.70;3.25;;;13.80;99.90;;;;;;7390065;19;20369;-79
2023/12/28 10:00:38;;;;;;;15.70;4.38;;;13.30;99.90;;;;;;7390753;19;20011;-79
2023/12/28 10:03:07;;;;;;;19.48;4.00;;;13.40;99.90;;;;;;7391465;19;20098;-80
2023/12/28 10:05:36;;;;;;;12.35;3.97;;;13.10;99.90;;;;;;7412190;19;20014;-80
2023/12/28 10:08:08;;;;;;;17.38;4.10;;;13.30;99.90;;;;;;7388748;19;20247;-80
2023/12/28 10:10:36;;;;;;;17.35;4.68;;;13.40;99.90;;;;;;7389502;19;20035;-79
2023/12/28 10:13:09;;;;;;;15.02;4.00;;;13.10;99.90;;;;;;7387414;19;20021;-80
2023/12/28 10:15:38;;;;;;;21.92;5.32;;;13.20;99.90;;;;;;7386244;19;20066;-79
2023/12/28 10:18:07;;;;;;;19.17;4.40;;;13.40;99.90;;;;;;7384400;19;20003;-77
2023/12/28 10:20:36;;;;;;;14.85;4.35;;;13.50;99.90;;;;;;7407433;19;20011;-77
2023/12/28 10:23:05;;;;;;;13.63;4.20;;;13.60;99.90;;;;;;7384605;19;20390;-75
2023/12/28 10:25:38;;;;;;;15.43;4.22;;;13.50;99.90;;;;;;7387262;19;20003;-79
2023/12/28 10:28:12;;;;;;;15.32;4.10;;;13.40;99.90;;;;;;7385578;19;20010;-78
2023/12/28 10:30:41;;;;;;;11.50;3.95;;;13.60;99.90;;;;;;7386739;19;20030;-77
2023/12/28 10:33:11;;;;;;;14.73;4.18;;;13.70;99.90;;;;;;7386415;19;20007;-77
2023/12/28 10:35:40;;;;;;;13.70;4.43;;;13.70;99.90;;;;;;7407246;19;20264;-77
2023/12/28 10:38:12;;;;;;;16.63;4.53;;;13.80;99.90;;;;;;7383929;19;20034;-76
2023/12/28 10:40:42;;;;;;;18.58;3.85;;;13.90;99.90;;;;;;7386741;19;20007;-78
2023/12/28 10:43:18;;;;;;;23.98;4.20;;;14.00;99.90;;;;;;7385958;19;20007;-78
2023/12/28 10:45:52;;;;;;;11.05;3.85;;;14.10;99.90;;;;;;7386214;19;20072;-79
2023/12/28 10:48:31;;;;;;;12.00;3.90;;;14.00;99.90;;;;;;7387160;19;20242;-78
2023/12/28 10:51:00;;;;;;;20.70;5.38;;;13.90;99.90;;;;;;7406215;19;20011;-77
2023/12/28 10:53:40;;;;;;;14.40;4.07;;;13.80;99.90;;;;;;7386061;19;20006;-78
2023/12/28 10:56:22;;;;;;;10.45;4.00;;;13.90;99.90;;;;;;7387191;19;20035;-79
2023/12/28 10:58:59;;;;;;;19.85;3.83;;;14.10;99.90;;;;;;7386416;19;20490;-83
2023/12/28 11:01:33;;;;;;;10.35;4.75;;;14.20;99.90;;;;;;7385741;19;20013;-80
2023/12/28 11:04:11;;;;;;;23.85;6.57;;;14.20;99.90;;;;;;7384914;19;20006;-78
2023/12/28 11:06:42;;;;;;;17.33;4.00;;;14.10;99.90;;;;;;7383654;19;20009;-76
2023/12/28 11:09:13;;;;;;;17.33;4.43;;;14.20;99.90;;;;;;7383995;19;20219;-77
2023/12/28 11:11:46;;;;;;;10.95;4.35;;;14.00;99.90;;;;;;7407335;19;20065;-78
2023/12/28 11:14:22;;;;;;;14.52;4.13;;;14.20;99.90;;;;;;7384972;19;20003;-77
2023/12/28 11:16:51;;;;;;;12.00;4.07;;;14.20;99.90;;;;;;7385150;19;20017;-76
2023/12/28 11:19:21;;;;;;;18.58;5.05;;;14.00;99.90;;;;;;7382671;19;20082;-75
2023/12/28 11:21:50;;;;;;;14.25;4.22;;;14.20;99.90;;;;;;7382648;19;20246;-75
2023/12/28 11:24:20;;;;;;;20.73;4.65;;;14.30;99.90;;;;;;7383782;19;20251;-75
2023/12/28 11:26:56;;;;;;;18.85;4.55;;;14.20;99.90;;;;;;7404674;19;20011;-75
2023/12/28 11:29:28;;;;;;;13.73;4.30;;;14.20;99.90;;;;;;7383228;19;20223;-77
2023/12/28 11:31:57;;;;;;;13.07;4.80;;;13.80;99.90;;;;;;7383799;19;20034;-76
2023/12/28 11:34:28;;;;;;;12.48;4.50;;;13.90;99.90;;;;;;7383454;19;20006;-76
2023/12/28 11:36:59;;;;;;;18.17;3.65;;;14.00;99.90;;;;;;7392711;19;20007;-76
2023/12/28 11:39:34;;;;;;;13.45;3.85;;;13.90;99.90;;;;;;7388666;19;20013;-75
2023/12/28 11:42:04;;;;;;;12.30;4.00;;;13.80;99.90;;;;;;7411006;19;20015;-77
2023/12/28 11:44:41;;;;;;;11.63;3.63;;;13.80;99.90;;;;;;7388956;19;20007;-77
2023/12/28 11:47:16;;;;;;;13.13;3.72;;;13.70;99.90;;;;;;7392005;19;20345;-76
2023/12/28 11:49:51;;;;;;;18.38;3.38;;;13.80;99.90;;;;;;7386415;19;20038;-79
2023/12/28 11:52:26;;;;;;;12.52;3.95;;;13.90;99.90;;;;;;7385758;19;20135;-78
2023/12/28 11:54:55;;;;;;;11.18;3.20;;;13.90;99.90;;;;;;7384724;19;20006;-78
2023/12/28 11:57:25;;;;;;;7.75;2.90;;;13.50;99.90;;;;;;7383090;19;20007;-77
2023/12/28 12:00:00;;;;;;;14.93;2.88;;;13.60;99.90;;;;;;7403504;19;20397;-79
2023/12/28 12:02:29;;;;;;;6.40;3.22;;;13.30;99.90;;;;;;7384607;19;20034;-78
2023/12/28 12:05:01;;;;;;;13.20;3.75;;;13.60;99.90;;;;;;7382679;19;20341;-75
2023/12/28 12:07:30;;;;;;;9.57;2.70;;;13.80;99.90;;;;;;7383017;19;20068;-78
2023/12/28 12:09:59;;;;;;;20.27;2.90;;;13.90;99.90;;;;;;7385308;19;20007;-79
2023/12/28 12:12:28;;;;;;;13.18;3.72;;;14.10;99.90;;;;;;7384778;19;20019;-79
2023/12/28 12:15:01;;;;;;;13.35;4.35;;;14.30;99.90;;;;;;7406024;19;20243;-79
2023/12/28 12:17:30;;;;;;;18.80;6.80;;;14.40;99.90;;;;;;7385297;19;20030;-78
2023/12/28 12:20:02;;;;;;;27.95;8.75;;;14.40;99.90;;;;;;7382587;19;20010;-79
2023/12/28 12:22:30;;;;;;;14.00;3.67;;;14.50;99.90;;;;;;7385012;19;20058;-78
2023/12/28 12:25:03;;;;;;;17.00;3.55;;;14.50;99.90;;;;;;7385552;19;20010;-76
2023/12/28 12:27:32;;;;;;;9.20;3.10;;;14.60;99.90;;;;;;7385616;19;19999;-75
2023/12/28 12:30:03;;;;;;;7.95;2.75;;;14.50;99.90;;;;;;7402489;19;20015;-75
2023/12/28 12:32:32;;;;;;;13.02;2.70;;;14.50;99.90;;;;;;7381534;19;20007;-78
2023/12/28 12:35:01;;;;;;;8.55;3.17;;;14.40;99.90;;;;;;7381116;19;20292;-76
2023/12/28 12:37:29;;;;;;;6.70;2.75;;;14.30;99.90;;;;;;7381158;19;20026;-76
2023/12/28 12:39:58;;;;;;;8.88;2.72;;;14.40;99.90;;;;;;7381455;19;20078;-75
2023/12/28 12:42:27;;;;;;;9.90;2.97;;;14.20;99.90;;;;;;7381162;19;20224;-76
2023/12/28 12:44:56;;;;;;;6.85;3.10;;;14.40;99.90;;;;;;7402936;19;20010;-76
2023/12/28 12:47:28;;;;;;;13.90;2.92;;;14.40;99.90;;;;;;7380038;19;20035;-75
2023/12/28 12:49:58;;;;;;;12.75;3.05;;;14.50;99.90;;;;;;7380322;19;20066;-75
2023/12/28 12:52:28;;;;;;;8.93;3.60;;;14.50;99.90;;;;;;7383331;19;20006;-76
2023/12/28 12:54:58;;;;;;;7.05;2.65;;;14.40;99.90;;;;;;7380898;19;20460;-76